sensor_id;sensor_type;location;lat;lon;timestamp;pressure;altitude;pressure_sealevel;temperature;humidity
10006;BME280;5042;42.626;23.382;2023-05-19T00:01:28;94600.34;;;12.34;100.00
10006;BME280;5042;42.626;23.382;2023-05-19T00:03:56;94594.03;;;12.28;100.00
10006;BME280;5042;42.626;23.382;2023-05-19T00:06:28;94599.16;;;12.37;100.00
10006;BME280;5042;42.626;23.382;2023-05-19T00:08:57;94584.59;;;12.34;100.00
10006;BME280;5042;42.626;23.382;2023-05-19T00:11:26;94591.88;;;12.39;100.00
10006;BME280;5042;42.626;23.382;2023-05-19T00:13:54;94591.28;;;12.37;100.00
10006;BME280;5042;42.626;23.382;2023-05-19T00:16:21;94577.09;;;12.38;100.00
10006;BME280;5042;42.626;23.382;2023-05-19T00:18:48;94582.41;;;12.44;100.00
10006;BME280;5042;42.626;23.382;2023-05-19T00:21:16;94582.22;;;12.46;100.00
10006;BME280;5042;42.626;23.382;2023-05-19T00:23:43;94584.25;;;12.50;100.00
10006;BME280;5042;42.626;23.382;2023-05-19T00:26:10;94555.41;;;12.22;100.00
10006;BME280;5042;42.626;23.382;2023-05-19T00:28:38;94575.72;;;12.42;100.00
10006;BME280;5042;42.626;23.382;2023-05-19T00:31:05;94574.50;;;12.44;100.00
10006;BME280;5042;42.626;23.382;2023-05-19T00:33:32;94577.31;;;12.43;100.00
10006;BME280;5042;42.626;23.382;2023-05-19T00:35:59;94577.31;;;12.43;100.00
10006;BME280;5042;42.626;23.382;2023-05-19T00:38:29;94582.63;;;12.15;100.00
10006;BME280;5042;42.626;23.382;2023-05-19T00:40:56;94575.41;;;12.23;100.00
10006;BME280;5042;42.626;23.382;2023-05-19T00:43:22;94578.66;;;12.25;100.00
10006;BME280;5042;42.626;23.382;2023-05-19T00:45:51;94547.91;;;12.19;100.00
10006;BME280;5042;42.626;23.382;2023-05-19T00:48:18;94561.94;;;12.40;100.00
10006;BME280;5042;42.626;23.382;2023-05-19T00:50:45;94566.00;;;12.42;100.00
10006;BME280;5042;42.626;23.382;2023-05-19T00:53:13;94567.00;;;12.35;100.00
10006;BME280;5042;42.626;23.382;2023-05-19T00:55:42;94569.00;;;12.33;100.00
10006;BME280;5042;42.626;23.382;2023-05-19T00:58:10;94558.25;;;12.27;100.00
10006;BME280;5042;42.626;23.382;2023-05-19T01:00:38;94535.72;;;12.12;100.00
10006;BME280;5042;42.626;23.382;2023-05-19T01:03:06;94562.97;;;12.39;100.00
10006;BME280;5042;42.626;23.382;2023-05-19T01:05:37;94559.31;;;12.40;100.00
10006;BME280;5042;42.626;23.382;2023-05-19T01:08:06;94565.59;;;12.39;100.00
10006;BME280;5042;42.626;23.382;2023-05-19T01:10:32;94562.38;;;12.43;100.00
10006;BME280;5042;42.626;23.382;2023-05-19T01:12:59;94573.09;;;12.42;100.00
10006;BME280;5042;42.626;23.382;2023-05-19T01:15:27;94562.13;;;12.38;100.00
10006;BME280;5042;42.626;23.382;2023-05-19T01:17:58;94572.66;;;12.38;100.00
10006;BME280;5042;42.626;23.382;2023-05-19T01:20:33;94577.31;;;12.43;100.00
10006;BME280;5042;42.626;23.382;2023-05-19T01:23:19;94527.28;;;12.16;100.00
10006;BME280;5042;42.626;23.382;2023-05-19T01:26:15;94572.81;;;12.30;100.00
10006;BME280;5042;42.626;23.382;2023-05-19T01:29:07;94565.53;;;12.25;100.00
10006;BME280;5042;42.626;23.382;2023-05-19T01:31:40;94549.69;;;12.12;100.00
10006;BME280;5042;42.626;23.382;2023-05-19T01:34:08;94549.94;;;12.17;100.00
10006;BME280;5042;42.626;23.382;2023-05-19T01:36:37;94568.34;;;12.24;100.00
10006;BME280;5042;42.626;23.382;2023-05-19T01:39:09;94565.66;;;12.11;100.00
10006;BME280;5042;42.626;23.382;2023-05-19T01:41:38;94575.38;;;12.17;100.00
10006;BME280;5042;42.626;23.382;2023-05-19T01:44:07;94572.69;;;12.10;100.00
10006;BME280;5042;42.626;23.382;2023-05-19T01:46:34;94569.72;;;12.13;100.00
10006;BME280;5042;42.626;23.382;2023-05-19T01:49:03;94565.84;;;12.09;100.00
10006;BME280;5042;42.626;23.382;2023-05-19T01:51:31;94570.91;;;12.11;100.00
10006;BME280;5042;42.626;23.382;2023-05-19T01:53:57;94575.16;;;12.12;100.00
10006;BME280;5042;42.626;23.382;2023-05-19T01:56:31;94571.06;;;12.02;100.00
10006;BME280;5042;42.626;23.382;2023-05-19T01:59:04;94576.53;;;12.07;100.00
10006;BME280;5042;42.626;23.382;2023-05-19T02:01:42;94574.13;;;12.06;100.00
10006;BME280;5042;42.626;23.382;2023-05-19T02:04:19;94587.25;;;12.06;100.00
10006;BME280;5042;42.626;23.382;2023-05-19T02:06:54;94585.25;;;12.08;100.00
10006;BME280;5042;42.626;23.382;2023-05-19T02:09:33;94578.41;;;12.14;100.00
10006;BME280;5042;42.626;23.382;2023-05-19T02:12:09;94575.16;;;12.12;100.00
10006;BME280;5042;42.626;23.382;2023-05-19T02:14:40;94583.03;;;12.12;100.00
10006;BME280;5042;42.626;23.382;2023-05-19T02:17:12;94581.59;;;12.09;100.00
10006;BME280;5042;42.626;23.382;2023-05-19T02:19:42;94568.38;;;11.89;100.00
10006;BME280;5042;42.626;23.382;2023-05-19T02:22:09;94532.38;;;11.61;100.00
10006;BME280;5042;42.626;23.382;2023-05-19T02:24:35;94580.03;;;11.86;100.00
10006;BME280;5042;42.626;23.382;2023-05-19T02:27:04;94582.66;;;11.86;100.00
10006;BME280;5042;42.626;23.382;2023-05-19T02:29:31;94582.13;;;11.70;100.00
10006;BME280;5042;42.626;23.382;2023-05-19T02:31:59;94577.31;;;11.73;100.00
10006;BME280;5042;42.626;23.382;2023-05-19T02:34:26;94583.19;;;11.75;100.00
10006;BME280;5042;42.626;23.382;2023-05-19T02:36:54;94583.31;;;11.67;100.00
10006;BME280;5042;42.626;23.382;2023-05-19T02:39:21;94586.72;;;11.61;100.00
10006;BME280;5042;42.626;23.382;2023-05-19T02:41:47;94589.28;;;11.54;100.00
10006;BME280;5042;42.626;23.382;2023-05-19T02:44:16;94598.34;;;11.52;100.00
10006;BME280;5042;42.626;23.382;2023-05-19T02:46:42;94592.72;;;11.55;100.00
10006;BME280;5042;42.626;23.382;2023-05-19T02:49:09;94594.91;;;11.51;100.00
10006;BME280;5042;42.626;23.382;2023-05-19T02:51:36;94597.78;;;11.56;100.00
10006;BME280;5042;42.626;23.382;2023-05-19T02:54:05;94599.78;;;11.54;100.00
10006;BME280;5042;42.626;23.382;2023-05-19T02:56:31;94593.72;;;11.54;100.00
10006;BME280;5042;42.626;23.382;2023-05-19T02:58:58;94590.22;;;11.46;100.00
10006;BME280;5042;42.626;23.382;2023-05-19T03:01:26;94589.78;;;11.43;100.00
10006;BME280;5042;42.626;23.382;2023-05-19T03:03:53;94593.59;;;11.40;100.00
10006;BME280;5042;42.626;23.382;2023-05-19T03:06:20;94596.63;;;11.37;100.00
10006;BME280;5042;42.626;23.382;2023-05-19T03:08:47;94599.72;;;11.48;100.00
10006;BME280;5042;42.626;23.382;2023-05-19T03:11:16;94605.22;;;11.53;100.00
10006;BME280;5042;42.626;23.382;2023-05-19T03:13:43;94614.91;;;11.52;100.00
10006;BME280;5042;42.626;23.382;2023-05-19T03:16:09;94606.41;;;11.50;100.00
10006;BME280;5042;42.626;23.382;2023-05-19T03:18:37;94563.88;;;11.33;100.00
10006;BME280;5042;42.626;23.382;2023-05-19T03:21:04;94605.84;;;11.55;100.00
10006;BME280;5042;42.626;23.382;2023-05-19T03:23:30;94612.16;;;11.60;100.00
10006;BME280;5042;42.626;23.382;2023-05-19T03:25:57;94612.41;;;11.65;100.00
10006;BME280;5042;42.626;23.382;2023-05-19T03:28:25;94605.34;;;11.66;100.00
10006;BME280;5042;42.626;23.382;2023-05-19T03:30:52;94606.31;;;11.65;100.00
10006;BME280;5042;42.626;23.382;2023-05-19T03:33:19;94600.59;;;11.55;100.00
10006;BME280;5042;42.626;23.382;2023-05-19T03:35:46;94594.94;;;11.58;100.00
10006;BME280;5042;42.626;23.382;2023-05-19T03:38:13;94604.06;;;11.62;100.00
10006;BME280;5042;42.626;23.382;2023-05-19T03:40:39;94609.22;;;11.70;100.00
10006;BME280;5042;42.626;23.382;2023-05-19T03:43:06;94607.00;;;11.74;100.00
10006;BME280;5042;42.626;23.382;2023-05-19T03:45:34;94605.19;;;11.74;100.00
10006;BME280;5042;42.626;23.382;2023-05-19T03:48:01;94608.09;;;11.86;100.00
10006;BME280;5042;42.626;23.382;2023-05-19T03:50:28;94596.25;;;11.90;100.00
10006;BME280;5042;42.626;23.382;2023-05-19T03:52:55;94600.53;;;11.98;100.00
10006;BME280;5042;42.626;23.382;2023-05-19T03:55:22;94603.56;;;11.95;100.00
10006;BME280;5042;42.626;23.382;2023-05-19T03:57:50;94606.09;;;12.16;100.00
10006;BME280;5042;42.626;23.382;2023-05-19T04:00:19;94615.88;;;12.22;100.00
10006;BME280;5042;42.626;23.382;2023-05-19T04:02:48;94617.47;;;12.23;100.00
10006;BME280;5042;42.626;23.382;2023-05-19T04:05:15;94612.03;;;12.25;100.00
10006;BME280;5042;42.626;23.382;2023-05-19T04:07:42;94617.34;;;12.32;100.00
10006;BME280;5042;42.626;23.382;2023-05-19T04:10:11;94616.94;;;12.35;100.00
10006;BME280;5042;42.626;23.382;2023-05-19T04:12:38;94610.25;;;12.32;100.00
10006;BME280;5042;42.626;23.382;2023-05-19T04:15:05;94618.81;;;12.47;100.00
10006;BME280;5042;42.626;23.382;2023-05-19T04:17:32;94615.13;;;12.77;100.00
10006;BME280;5042;42.626;23.382;2023-05-19T04:20:01;94616.22;;;13.15;100.00
10006;BME280;5042;42.626;23.382;2023-05-19T04:22:30;94623.22;;;13.43;100.00
10006;BME280;5042;42.626;23.382;2023-05-19T04:24:57;94631.31;;;13.62;100.00
10006;BME280;5042;42.626;23.382;2023-05-19T04:27:24;94625.66;;;13.91;100.00
10006;BME280;5042;42.626;23.382;2023-05-19T04:29:54;94624.56;;;14.46;100.00
10006;BME280;5042;42.626;23.382;2023-05-19T04:32:22;94636.19;;;14.96;100.00
10006;BME280;5042;42.626;23.382;2023-05-19T04:34:49;94636.91;;;15.17;100.00
10006;BME280;5042;42.626;23.382;2023-05-19T04:37:17;94637.94;;;15.54;100.00
10006;BME280;5042;42.626;23.382;2023-05-19T04:39:44;94644.41;;;15.90;100.00
10006;BME280;5042;42.626;23.382;2023-05-19T04:42:11;94637.97;;;16.48;100.00
10006;BME280;5042;42.626;23.382;2023-05-19T04:44:38;94640.56;;;16.91;100.00
10006;BME280;5042;42.626;23.382;2023-05-19T04:47:06;94631.34;;;17.12;100.00
10006;BME280;5042;42.626;23.382;2023-05-19T04:49:33;94639.03;;;17.02;100.00
10006;BME280;5042;42.626;23.382;2023-05-19T04:52:05;94652.34;;;17.14;100.00
10006;BME280;5042;42.626;23.382;2023-05-19T04:54:34;94630.69;;;17.17;100.00
10006;BME280;5042;42.626;23.382;2023-05-19T04:57:00;94651.28;;;17.75;100.00
10006;BME280;5042;42.626;23.382;2023-05-19T04:59:28;94653.59;;;18.14;100.00
10006;BME280;5042;42.626;23.382;2023-05-19T05:01:55;94652.31;;;18.52;100.00
10006;BME280;5042;42.626;23.382;2023-05-19T05:04:22;94652.53;;;18.74;100.00
10006;BME280;5042;42.626;23.382;2023-05-19T05:06:49;94659.00;;;18.90;100.00
10006;BME280;5042;42.626;23.382;2023-05-19T05:09:17;94664.97;;;19.09;100.00
10006;BME280;5042;42.626;23.382;2023-05-19T05:11:46;94656.53;;;19.12;100.00
10006;BME280;5042;42.626;23.382;2023-05-19T05:14:13;94659.78;;;19.02;100.00
10006;BME280;5042;42.626;23.382;2023-05-19T05:16:41;94665.31;;;19.00;100.00
10006;BME280;5042;42.626;23.382;2023-05-19T05:19:08;94661.09;;;19.28;100.00
10006;BME280;5042;42.626;23.382;2023-05-19T05:21:35;94658.28;;;19.46;100.00
10006;BME280;5042;42.626;23.382;2023-05-19T05:24:03;94655.88;;;19.33;100.00
10006;BME280;5042;42.626;23.382;2023-05-19T05:26:32;94658.13;;;19.53;100.00
10006;BME280;5042;42.626;23.382;2023-05-19T05:29:00;94665.59;;;19.68;100.00
10006;BME280;5042;42.626;23.382;2023-05-19T05:31:27;94666.25;;;19.75;100.00
10006;BME280;5042;42.626;23.382;2023-05-19T05:33:55;94665.97;;;19.88;100.00
10006;BME280;5042;42.626;23.382;2023-05-19T05:36:22;94664.41;;;19.76;100.00
10006;BME280;5042;42.626;23.382;2023-05-19T05:38:49;94659.75;;;20.17;100.00
10006;BME280;5042;42.626;23.382;2023-05-19T05:41:16;94670.31;;;19.95;100.00
10006;BME280;5042;42.626;23.382;2023-05-19T05:43:42;94671.28;;;20.39;99.48
10006;BME280;5042;42.626;23.382;2023-05-19T05:46:10;94669.63;;;20.89;93.22
10006;BME280;5042;42.626;23.382;2023-05-19T05:48:38;94663.94;;;21.02;96.19
10006;BME280;5042;42.626;23.382;2023-05-19T05:51:07;94678.38;;;21.28;92.02
10006;BME280;5042;42.626;23.382;2023-05-19T05:53:39;94681.16;;;21.16;88.39
10006;BME280;5042;42.626;23.382;2023-05-19T05:56:08;94683.78;;;21.11;88.85
10006;BME280;5042;42.626;23.382;2023-05-19T05:58:35;94681.25;;;21.22;88.09
10006;BME280;5042;42.626;23.382;2023-05-19T06:01:03;94692.16;;;21.20;83.90
10006;BME280;5042;42.626;23.382;2023-05-19T06:03:32;94685.09;;;21.31;95.29
10006;BME280;5042;42.626;23.382;2023-05-19T06:06:02;94697.09;;;21.50;87.20
10006;BME280;5042;42.626;23.382;2023-05-19T06:08:29;94698.69;;;21.51;88.20
10006;BME280;5042;42.626;23.382;2023-05-19T06:10:56;94692.38;;;21.57;91.49
10006;BME280;5042;42.626;23.382;2023-05-19T06:13:23;94706.66;;;21.73;82.35
10006;BME280;5042;42.626;23.382;2023-05-19T06:15:50;94691.56;;;21.84;80.89
10006;BME280;5042;42.626;23.382;2023-05-19T06:18:17;94705.88;;;22.27;88.38
10006;BME280;5042;42.626;23.382;2023-05-19T06:20:45;94708.00;;;22.25;81.43
10006;BME280;5042;42.626;23.382;2023-05-19T06:23:12;94697.47;;;22.46;76.50
10006;BME280;5042;42.626;23.382;2023-05-19T06:25:39;94705.28;;;22.52;79.93
10006;BME280;5042;42.626;23.382;2023-05-19T06:28:06;94704.94;;;22.81;76.62
10006;BME280;5042;42.626;23.382;2023-05-19T06:30:33;94705.69;;;22.71;71.48
10006;BME280;5042;42.626;23.382;2023-05-19T06:33:01;94704.66;;;22.77;76.25
10006;BME280;5042;42.626;23.382;2023-05-19T06:35:29;94621.97;;;21.91;82.01
10006;BME280;5042;42.626;23.382;2023-05-19T06:37:57;94694.13;;;22.60;82.33
10006;BME280;5042;42.626;23.382;2023-05-19T06:40:24;94704.63;;;22.40;70.52
10006;BME280;5042;42.626;23.382;2023-05-19T06:42:51;94700.16;;;22.18;82.32
10006;BME280;5042;42.626;23.382;2023-05-19T06:45:17;94693.41;;;22.11;79.60
10006;BME280;5042;42.626;23.382;2023-05-19T06:47:46;94699.13;;;22.19;80.88
10006;BME280;5042;42.626;23.382;2023-05-19T06:50:13;94694.75;;;21.81;83.20
10006;BME280;5042;42.626;23.382;2023-05-19T06:52:40;94695.28;;;21.12;81.00
10006;BME280;5042;42.626;23.382;2023-05-19T06:55:08;94695.13;;;21.02;85.85
10006;BME280;5042;42.626;23.382;2023-05-19T06:57:35;94702.75;;;21.15;92.93
10006;BME280;5042;42.626;23.382;2023-05-19T07:00:02;94698.41;;;21.75;100.00
10006;BME280;5042;42.626;23.382;2023-05-19T07:02:31;94709.00;;;21.92;82.68
10006;BME280;5042;42.626;23.382;2023-05-19T07:04:57;94712.88;;;21.79;77.04
10006;BME280;5042;42.626;23.382;2023-05-19T07:07:24;94715.03;;;21.16;80.12
10006;BME280;5042;42.626;23.382;2023-05-19T07:09:52;94707.41;;;21.69;85.18
10006;BME280;5042;42.626;23.382;2023-05-19T07:12:20;94668.75;;;21.44;92.26
10006;BME280;5042;42.626;23.382;2023-05-19T07:14:47;94708.78;;;21.71;92.35
10006;BME280;5042;42.626;23.382;2023-05-19T07:17:14;94721.63;;;22.01;82.60
10006;BME280;5042;42.626;23.382;2023-05-19T07:19:40;94720.38;;;22.36;76.27
10006;BME280;5042;42.626;23.382;2023-05-19T07:22:07;94719.38;;;21.88;79.14
10006;BME280;5042;42.626;23.382;2023-05-19T07:24:34;94720.72;;;21.91;78.78
10006;BME280;5042;42.626;23.382;2023-05-19T07:27:01;94718.97;;;21.74;78.02
10006;BME280;5042;42.626;23.382;2023-05-19T07:29:29;94717.88;;;21.75;75.54
10006;BME280;5042;42.626;23.382;2023-05-19T07:31:56;94719.78;;;22.02;87.71
10006;BME280;5042;42.626;23.382;2023-05-19T07:34:23;94723.91;;;22.15;83.29
10006;BME280;5042;42.626;23.382;2023-05-19T07:36:50;94724.47;;;22.17;75.02
10006;BME280;5042;42.626;23.382;2023-05-19T07:39:17;94718.56;;;21.88;81.43
10006;BME280;5042;42.626;23.382;2023-05-19T07:41:44;94728.63;;;21.80;79.12
10006;BME280;5042;42.626;23.382;2023-05-19T07:44:16;94725.00;;;21.92;85.81
10006;BME280;5042;42.626;23.382;2023-05-19T07:46:45;94726.53;;;21.60;89.41
10006;BME280;5042;42.626;23.382;2023-05-19T07:49:11;94721.22;;;21.60;84.53
10006;BME280;5042;42.626;23.382;2023-05-19T07:51:38;94712.38;;;21.82;81.53
10006;BME280;5042;42.626;23.382;2023-05-19T07:54:06;94724.06;;;22.30;78.89
10006;BME280;5042;42.626;23.382;2023-05-19T07:56:33;94719.34;;;22.75;80.17
10006;BME280;5042;42.626;23.382;2023-05-19T07:59:00;94718.03;;;22.82;74.75
10006;BME280;5042;42.626;23.382;2023-05-19T08:01:26;94717.25;;;22.82;70.59
10006;BME280;5042;42.626;23.382;2023-05-19T08:03:55;94722.16;;;22.95;77.30
10006;BME280;5042;42.626;23.382;2023-05-19T08:06:22;94722.38;;;23.31;76.39
10006;BME280;5042;42.626;23.382;2023-05-19T08:08:49;94728.91;;;23.03;67.81
10006;BME280;5042;42.626;23.382;2023-05-19T08:11:16;94706.41;;;22.24;82.40
10006;BME280;5042;42.626;23.382;2023-05-19T08:13:43;94712.97;;;22.43;81.60
10006;BME280;5042;42.626;23.382;2023-05-19T08:16:11;94724.09;;;23.05;78.79
10006;BME280;5042;42.626;23.382;2023-05-19T08:18:38;94707.06;;;23.16;74.16
10006;BME280;5042;42.626;23.382;2023-05-19T08:21:07;94707.69;;;23.44;76.43
10006;BME280;5042;42.626;23.382;2023-05-19T08:23:33;94719.56;;;23.63;70.49
10006;BME280;5042;42.626;23.382;2023-05-19T08:26:01;94723.06;;;23.69;70.54
10006;BME280;5042;42.626;23.382;2023-05-19T08:28:28;94714.84;;;23.96;70.00
10006;BME280;5042;42.626;23.382;2023-05-19T08:30:55;94706.84;;;24.06;74.33
10006;BME280;5042;42.626;23.382;2023-05-19T08:33:21;94713.25;;;23.95;70.34
10006;BME280;5042;42.626;23.382;2023-05-19T08:35:48;94717.75;;;23.79;70.09
10006;BME280;5042;42.626;23.382;2023-05-19T08:38:16;94723.03;;;23.59;65.99
10006;BME280;5042;42.626;23.382;2023-05-19T08:40:45;94702.84;;;23.31;66.45
10006;BME280;5042;42.626;23.382;2023-05-19T08:43:12;94715.56;;;22.71;69.01
10006;BME280;5042;42.626;23.382;2023-05-19T08:45:42;94706.38;;;22.56;74.97
10006;BME280;5042;42.626;23.382;2023-05-19T08:48:10;94718.16;;;22.98;73.95
10006;BME280;5042;42.626;23.382;2023-05-19T08:50:38;94703.66;;;22.89;83.43
10006;BME280;5042;42.626;23.382;2023-05-19T08:53:10;94708.09;;;23.15;86.12
10006;BME280;5042;42.626;23.382;2023-05-19T08:55:45;94716.97;;;22.78;76.96
10006;BME280;5042;42.626;23.382;2023-05-19T08:58:13;94704.59;;;22.35;76.69
10006;BME280;5042;42.626;23.382;2023-05-19T09:00:44;94703.41;;;22.53;80.23
10006;BME280;5042;42.626;23.382;2023-05-19T09:03:11;94716.31;;;22.98;81.34
10006;BME280;5042;42.626;23.382;2023-05-19T09:05:40;94714.38;;;22.94;69.56
10006;BME280;5042;42.626;23.382;2023-05-19T09:08:07;94705.31;;;22.95;86.79
10006;BME280;5042;42.626;23.382;2023-05-19T09:10:34;94702.38;;;22.59;72.81
10006;BME280;5042;42.626;23.382;2023-05-19T09:13:03;94701.78;;;21.92;75.43
10006;BME280;5042;42.626;23.382;2023-05-19T09:15:30;94697.50;;;21.64;81.18
10006;BME280;5042;42.626;23.382;2023-05-19T09:18:06;94691.75;;;22.32;96.33
10006;BME280;5042;42.626;23.382;2023-05-19T09:20:38;94692.13;;;21.86;80.83
10006;BME280;5042;42.626;23.382;2023-05-19T09:23:06;94698.03;;;21.88;82.77
10006;BME280;5042;42.626;23.382;2023-05-19T09:25:33;94683.00;;;21.82;77.95
10006;BME280;5042;42.626;23.382;2023-05-19T09:28:02;94689.25;;;21.66;82.56
10006;BME280;5042;42.626;23.382;2023-05-19T09:30:29;94688.66;;;21.86;75.34
10006;BME280;5042;42.626;23.382;2023-05-19T09:32:56;94683.25;;;21.80;82.55
10006;BME280;5042;42.626;23.382;2023-05-19T09:35:23;94684.03;;;21.76;75.26
10006;BME280;5042;42.626;23.382;2023-05-19T09:37:49;94680.56;;;21.53;81.18
10006;BME280;5042;42.626;23.382;2023-05-19T09:40:16;94671.25;;;21.56;87.75
10006;BME280;5042;42.626;23.382;2023-05-19T09:42:43;94686.38;;;21.06;86.19
10006;BME280;5042;42.626;23.382;2023-05-19T09:45:11;94675.47;;;21.30;82.66
10006;BME280;5042;42.626;23.382;2023-05-19T09:47:39;94679.19;;;21.07;81.84
10006;BME280;5042;42.626;23.382;2023-05-19T09:50:08;94654.84;;;20.59;86.66
10006;BME280;5042;42.626;23.382;2023-05-19T09:52:35;94668.34;;;20.91;89.91
10006;BME280;5042;42.626;23.382;2023-05-19T09:55:03;94665.22;;;21.00;78.21
10006;BME280;5042;42.626;23.382;2023-05-19T09:57:35;94667.53;;;21.35;91.69
10006;BME280;5042;42.626;23.382;2023-05-19T10:00:04;94671.31;;;20.95;88.43
10006;BME280;5042;42.626;23.382;2023-05-19T10:02:42;94666.97;;;21.11;93.49
10006;BME280;5042;42.626;23.382;2023-05-19T10:05:10;94665.78;;;21.41;88.53
10006;BME280;5042;42.626;23.382;2023-05-19T10:07:41;94634.88;;;21.45;88.71
10006;BME280;5042;42.626;23.382;2023-05-19T10:10:11;94642.53;;;21.90;96.99
10006;BME280;5042;42.626;23.382;2023-05-19T10:12:39;94656.28;;;21.77;74.46
10006;BME280;5042;42.626;23.382;2023-05-19T10:15:08;94660.03;;;21.76;80.49
10006;BME280;5042;42.626;23.382;2023-05-19T10:17:37;94642.06;;;21.98;87.29
10006;BME280;5042;42.626;23.382;2023-05-19T10:20:07;94657.69;;;22.17;81.91
10006;BME280;5042;42.626;23.382;2023-05-19T10:22:35;94672.25;;;21.72;74.42
10006;BME280;5042;42.626;23.382;2023-05-19T10:25:02;94656.84;;;21.79;82.98
10006;BME280;5042;42.626;23.382;2023-05-19T10:27:30;94650.75;;;22.16;77.17
10006;BME280;5042;42.626;23.382;2023-05-19T10:30:00;94629.19;;;22.22;93.95
10006;BME280;5042;42.626;23.382;2023-05-19T10:32:29;94642.84;;;22.26;80.40
10006;BME280;5042;42.626;23.382;2023-05-19T10:35:32;94643.41;;;22.01;80.78
10006;BME280;5042;42.626;23.382;2023-05-19T10:38:11;94648.50;;;22.02;76.82
10006;BME280;5042;42.626;23.382;2023-05-19T10:40:44;94646.56;;;22.25;84.89
10006;BME280;5042;42.626;23.382;2023-05-19T10:43:28;94640.88;;;22.54;86.31
10006;BME280;5042;42.626;23.382;2023-05-19T10:45:56;94647.38;;;23.11;77.06
10006;BME280;5042;42.626;23.382;2023-05-19T10:48:23;94648.03;;;22.85;68.93
10006;BME280;5042;42.626;23.382;2023-05-19T10:50:53;94648.03;;;22.85;72.54
10006;BME280;5042;42.626;23.382;2023-05-19T10:53:29;94645.06;;;22.39;67.05
10006;BME280;5042;42.626;23.382;2023-05-19T10:55:56;94632.28;;;22.41;71.38
10006;BME280;5042;42.626;23.382;2023-05-19T10:58:48;94628.25;;;22.39;73.40
10006;BME280;5042;42.626;23.382;2023-05-19T11:01:17;94640.84;;;22.43;80.31
10006;BME280;5042;42.626;23.382;2023-05-19T11:03:47;94634.69;;;22.11;71.93
10006;BME280;5042;42.626;23.382;2023-05-19T11:06:19;94625.50;;;21.96;71.96
10006;BME280;5042;42.626;23.382;2023-05-19T11:08:46;94633.84;;;22.37;70.22
10006;BME280;5042;42.626;23.382;2023-05-19T11:11:13;94629.63;;;22.94;83.15
10006;BME280;5042;42.626;23.382;2023-05-19T11:13:42;94643.34;;;22.60;65.42
10006;BME280;5042;42.626;23.382;2023-05-19T11:16:12;94626.94;;;22.41;71.99
10006;BME280;5042;42.626;23.382;2023-05-19T11:18:39;94626.63;;;22.80;74.03
10006;BME280;5042;42.626;23.382;2023-05-19T11:21:06;94637.75;;;22.62;65.75
10006;BME280;5042;42.626;23.382;2023-05-19T11:23:37;94629.09;;;22.12;64.53
10006;BME280;5042;42.626;23.382;2023-05-19T11:26:05;94619.31;;;22.23;67.83
10006;BME280;5042;42.626;23.382;2023-05-19T11:28:33;94618.28;;;21.97;68.88
10006;BME280;5042;42.626;23.382;2023-05-19T11:31:01;94616.06;;;21.84;68.54
10006;BME280;5042;42.626;23.382;2023-05-19T11:33:28;94618.84;;;21.67;70.47
10006;BME280;5042;42.626;23.382;2023-05-19T11:35:57;94627.31;;;21.64;76.07
10006;BME280;5042;42.626;23.382;2023-05-19T11:38:25;94587.13;;;21.43;74.09
10006;BME280;5042;42.626;23.382;2023-05-19T11:40:54;94634.00;;;21.17;72.13
10006;BME280;5042;42.626;23.382;2023-05-19T11:43:24;94621.75;;;20.21;91.85
10006;BME280;5042;42.626;23.382;2023-05-19T11:45:52;94627.66;;;19.15;100.00
10006;BME280;5042;42.626;23.382;2023-05-19T11:48:20;94658.19;;;18.18;100.00
10006;BME280;5042;42.626;23.382;2023-05-19T11:50:46;94650.19;;;17.83;100.00
10006;BME280;5042;42.626;23.382;2023-05-19T11:53:14;94633.75;;;17.32;100.00
10006;BME280;5042;42.626;23.382;2023-05-19T11:55:41;94653.88;;;17.22;100.00
10006;BME280;5042;42.626;23.382;2023-05-19T11:58:11;94668.03;;;17.27;100.00
10006;BME280;5042;42.626;23.382;2023-05-19T12:00:39;94682.59;;;17.36;100.00
10006;BME280;5042;42.626;23.382;2023-05-19T12:03:07;94683.59;;;17.05;100.00
10006;BME280;5042;42.626;23.382;2023-05-19T12:05:36;94710.47;;;16.47;100.00
10006;BME280;5042;42.626;23.382;2023-05-19T12:08:04;94712.47;;;16.26;100.00
10006;BME280;5042;42.626;23.382;2023-05-19T12:10:31;94710.50;;;15.90;100.00
10006;BME280;5042;42.626;23.382;2023-05-19T12:13:00;94715.59;;;15.85;100.00
10006;BME280;5042;42.626;23.382;2023-05-19T12:15:30;94711.88;;;15.99;100.00
10006;BME280;5042;42.626;23.382;2023-05-19T12:17:58;94713.63;;;16.05;100.00
10006;BME280;5042;42.626;23.382;2023-05-19T12:20:27;94701.69;;;15.96;100.00
10006;BME280;5042;42.626;23.382;2023-05-19T12:22:56;94692.84;;;15.84;100.00
10006;BME280;5042;42.626;23.382;2023-05-19T12:25:23;94697.09;;;15.85;100.00
10006;BME280;5042;42.626;23.382;2023-05-19T12:27:50;94702.69;;;15.70;100.00
10006;BME280;5042;42.626;23.382;2023-05-19T12:30:25;94693.50;;;15.66;100.00
10006;BME280;5042;42.626;23.382;2023-05-19T12:32:54;94688.47;;;15.64;100.00
10006;BME280;5042;42.626;23.382;2023-05-19T12:35:25;94674.09;;;15.54;100.00
10006;BME280;5042;42.626;23.382;2023-05-19T12:37:52;94681.97;;;15.60;100.00
10006;BME280;5042;42.626;23.382;2023-05-19T12:40:19;94621.19;;;15.35;100.00
10006;BME280;5042;42.626;23.382;2023-05-19T12:42:46;94653.88;;;15.66;100.00
10006;BME280;5042;42.626;23.382;2023-05-19T12:45:14;94654.78;;;15.85;100.00
10006;BME280;5042;42.626;23.382;2023-05-19T12:47:40;94640.63;;;16.04;100.00
10006;BME280;5042;42.626;23.382;2023-05-19T12:50:09;94646.44;;;16.57;100.00
10006;BME280;5042;42.626;23.382;2023-05-19T12:52:41;94611.28;;;16.68;100.00
10006;BME280;5042;42.626;23.382;2023-05-19T12:55:08;94626.91;;;17.25;100.00
10006;BME280;5042;42.626;23.382;2023-05-19T12:57:37;94624.22;;;17.43;100.00
10006;BME280;5042;42.626;23.382;2023-05-19T13:00:06;94596.38;;;17.52;100.00
10006;BME280;5042;42.626;23.382;2023-05-19T13:02:35;94636.47;;;17.98;100.00